»·PEaware :: N491H KLAS-KPSP

N491H :: KLAS-KPSP

FLIGHT INFORMATION

Flight Status: Arrived
Operator: Privately registered:
United States
More flights under this callsign
Pilot: Edward H. (2712)
Aircraft: CESSNA 172 SKYHAWK
(C172)
More flights by this aircraft type
Origin: KLAS McCarran Intl
United States
Destination: KPSP Palm Springs Intl
United States
More flights between these airports :: More routes between these airports
Route: +
File this flight plan on PilotEdge
Remarks:
Altitude:
(Current/Filed)
8,500ft
Speed:
(Current/Filed)
0kts
Departed: 18-Jun-18 11:19 AM
Arrived: 18-Jun-18 12:56 PM
Distance/Time
Traveled:
151nm/1:37
Distance/Time
To Go:
Arrived

Flight Plot

Page will automatically refresh every two minutes.

Flight plan parsing failed; only flown route is shown


Map Options




Map Legend


Flown Route
Filed Route
Departure Airport
Arrival Airport
Navaid (VOR, NDB)
Fix

Horizontal Profiles

Position Reports

Time Latitude Longitude Heading Altitude Ground
Speed
18-Jun-18 11:05 36.093066 -115.163401 259 2185ft 0kts
18-Jun-18 11:06 36.093066 -115.163401 259 2185ft 0kts
18-Jun-18 11:07 36.093066 -115.163401 259 2185ft 0kts
18-Jun-18 11:08 36.093066 -115.163401 259 2185ft 0kts
18-Jun-18 11:09 36.093066 -115.163401 259 2185ft 0kts
18-Jun-18 11:10 36.093066 -115.163401 259 2185ft 0kts
18-Jun-18 11:11 36.093066 -115.163401 259 2185ft 0kts
18-Jun-18 11:12 36.093066 -115.163401 259 2185ft 0kts
18-Jun-18 11:13 36.093066 -115.163401 259 2185ft 0kts
18-Jun-18 11:14 36.094332 -115.161459 70 2185ft 21kts
18-Jun-18 11:15 36.099357 -115.158095 25 2185ft 21kts
18-Jun-18 11:16 36.099877 -115.157438 111 2185ft 0kts
18-Jun-18 11:17 36.099874 -115.157430 108 2185ft 0kts
18-Jun-18 11:18 36.099087 -115.156764 197 2185ft 17kts
18-Jun-18 11:19 36.084250 -115.165653 201 2359ft 80kts
18-Jun-18 11:20 36.061849 -115.173128 185 2780ft 94kts
18-Jun-18 11:21 36.035053 -115.176637 185 3233ft 95kts
18-Jun-18 11:22 36.009335 -115.179898 185 3730ft 91kts
18-Jun-18 11:23 35.984551 -115.182930 185 4227ft 87kts
18-Jun-18 11:24 35.960739 -115.185733 185 4726ft 84kts
18-Jun-18 11:25 35.938072 -115.188238 185 5222ft 79kts
18-Jun-18 11:26 35.922394 -115.202391 236 5707ft 70kts
18-Jun-18 11:27 35.912720 -115.220306 240 6087ft 62kts
18-Jun-18 11:28 35.903590 -115.241910 237 6393ft 75kts
18-Jun-18 11:29 35.889811 -115.264854 224 6518ft 101kts
18-Jun-18 11:30 35.866620 -115.283666 210 6784ft 97kts
18-Jun-18 11:31 35.842866 -115.298836 208 7080ft 95kts
18-Jun-18 11:32 35.819487 -115.313296 208 7376ft 93kts
18-Jun-18 11:33 35.796656 -115.327352 208 7672ft 91kts
18-Jun-18 11:34 35.774260 -115.341150 208 7968ft 89kts
18-Jun-18 11:35 35.751620 -115.355075 208 8223ft 90kts
18-Jun-18 11:36 35.729642 -115.368580 208 8506ft 88kts
18-Jun-18 11:37 35.705077 -115.383736 208 8518ft 106kts
18-Jun-18 11:38 35.677582 -115.400649 208 8518ft 112kts
18-Jun-18 11:39 35.651847 -115.416459 208 8518ft 101kts
18-Jun-18 11:40 35.626421 -115.432019 208 8518ft 103kts
18-Jun-18 11:41 35.600648 -115.447792 208 8517ft 103kts
18-Jun-18 11:42 35.574864 -115.463574 208 8517ft 104kts
18-Jun-18 11:43 35.547928 -115.473329 163 8518ft 107kts
18-Jun-18 11:44 35.519901 -115.460816 161 8517ft 107kts
18-Jun-18 11:45 35.490898 -115.457635 184 8517ft 106kts
18-Jun-18 11:46 35.461302 -115.459220 184 8517ft 106kts
18-Jun-18 11:47 35.431873 -115.460987 184 8517ft 106kts
18-Jun-18 11:48 35.402391 -115.462802 184 8518ft 106kts
18-Jun-18 11:49 35.372717 -115.464662 185 8518ft 106kts
18-Jun-18 11:50 35.343094 -115.466522 184 8518ft 106kts
18-Jun-18 11:51 35.313462 -115.468381 184 8518ft 107kts
18-Jun-18 11:52 35.283842 -115.470228 184 8518ft 107kts
18-Jun-18 11:53 35.254115 -115.472087 185 8518ft 107kts
18-Jun-18 11:54 35.226652 -115.473795 184 8518ft 107kts
18-Jun-18 11:55 35.197169 -115.475638 184 8527ft 106kts
18-Jun-18 11:56 35.166636 -115.477536 185 8516ft 113kts
18-Jun-18 11:57 35.134724 -115.479517 185 8503ft 115kts
18-Jun-18 11:58 35.102531 -115.481536 186 8491ft 116kts
18-Jun-18 11:59 35.070465 -115.483534 186 8480ft 115kts
18-Jun-18 12:00 35.038662 -115.485510 186 8469ft 113kts
18-Jun-18 12:01 35.007434 -115.487449 187 8469ft 112kts
18-Jun-18 12:02 34.976337 -115.489381 187 8469ft 112kts
18-Jun-18 12:03 34.945347 -115.491303 187 8471ft 111kts
18-Jun-18 12:04 34.914440 -115.493218 188 8471ft 111kts
18-Jun-18 12:05 34.884573 -115.495072 188 8473ft 111kts
18-Jun-18 12:06 34.854029 -115.496961 188 8474ft 111kts
18-Jun-18 12:07 34.822841 -115.498892 188 8411ft 113kts
18-Jun-18 12:08 34.796966 -115.500478 188 8412ft 111kts
18-Jun-18 12:09 34.766065 -115.502387 187 8413ft 110kts
18-Jun-18 12:10 34.735411 -115.504278 188 8414ft 110kts
18-Jun-18 12:11 34.704846 -115.506161 187 8421ft 110kts
18-Jun-18 12:12 34.668909 -115.508395 187 8442ft 111kts
18-Jun-18 12:13 34.638725 -115.510244 187 8461ft 112kts
18-Jun-18 12:14 34.612431 -115.511870 187 8476ft 114kts
18-Jun-18 12:15 34.580590 -115.513828 187 8494ft 115kts
18-Jun-18 12:16 34.548385 -115.515805 186 8508ft 116kts
18-Jun-18 12:17 34.515917 -115.518040 187 8512ft 117kts
18-Jun-18 12:18 34.483411 -115.520498 203 8503ft 115kts
18-Jun-18 12:19 34.452123 -115.526418 184 8508ft 117kts
18-Jun-18 12:20 34.419435 -115.527110 185 8508ft 118kts
18-Jun-18 12:21 34.386547 -115.527911 185 8508ft 118kts
18-Jun-18 12:22 34.353812 -115.528738 185 8508ft 118kts
18-Jun-18 12:23 34.322599 -115.534888 223 8507ft 112kts
18-Jun-18 12:24 34.299328 -115.559875 226 8508ft 112kts
18-Jun-18 12:25 34.277019 -115.586116 240 8507ft 110kts
18-Jun-18 12:26 34.261423 -115.617739 242 8508ft 108kts
18-Jun-18 12:27 34.246244 -115.649189 243 8508ft 108kts
18-Jun-18 12:28 34.236547 -115.669375 242 8509ft 108kts
18-Jun-18 12:29 34.225501 -115.692294 242 8509ft 108kts
18-Jun-18 12:30 34.210368 -115.723785 242 8509ft 108kts
18-Jun-18 12:31 34.195180 -115.755352 242 8509ft 108kts
18-Jun-18 12:32 34.179973 -115.786908 242 8509ft 109kts
18-Jun-18 12:33 34.164794 -115.818414 242 8509ft 108kts
18-Jun-18 12:34 34.149657 -115.849806 242 8509ft 108kts
18-Jun-18 12:35 34.134410 -115.881342 242 8509ft 108kts
18-Jun-18 12:36 34.119181 -115.912855 242 8509ft 109kts
18-Jun-18 12:37 34.103923 -115.944382 242 8509ft 109kts
18-Jun-18 12:38 34.088888 -115.975435 242 8509ft 109kts
18-Jun-18 12:39 34.073592 -116.007022 242 8505ft 109kts
18-Jun-18 12:40 34.058217 -116.038763 242 8490ft 109kts
18-Jun-18 12:41 34.042775 -116.070553 242 8475ft 112kts
18-Jun-18 12:42 34.026962 -116.103076 242 8459ft 112kts
18-Jun-18 12:43 34.011175 -116.135529 242 8444ft 112kts
18-Jun-18 12:44 33.995563 -116.167605 243 8456ft 110kts
18-Jun-18 12:45 33.979930 -116.199688 243 8440ft 111kts
18-Jun-18 12:46 33.964313 -116.234884 243 7867ft 141kts
18-Jun-18 12:47 33.946675 -116.277891 265 6406ft 138kts
18-Jun-18 12:48 33.935425 -116.320086 230 4898ft 142kts
18-Jun-18 12:49 33.907878 -116.349337 226 4162ft 127kts
18-Jun-18 12:50 33.890709 -116.378742 245 3953ft 117kts
18-Jun-18 12:51 33.870270 -116.408150 223 3639ft 122kts
18-Jun-18 12:52 33.843945 -116.434137 228 2927ft 121kts
18-Jun-18 12:53 33.824064 -116.460334 241 2317ft 88kts
18-Jun-18 12:54 33.814398 -116.479726 245 1446ft 82kts
18-Jun-18 12:55 33.820579 -116.496748 323 590ft 61kts
18-Jun-18 12:56 33.826857 -116.501591 52 481ft 5kts
18-Jun-18 12:57 33.826870 -116.501570 54 481ft 0kts
18-Jun-18 12:58 33.824483 -116.499013 142 481ft 12kts
18-Jun-18 12:59 33.824349 -116.498424 59 481ft 0kts
18-Jun-18 13:00 33.824349 -116.498424 59 481ft 0kts

Navigation Log

Ident Type
Flight plan parsing failed, navigation log unavailable